createdAt,value
2018-10-21T00:00:12.922Z,98098.00
2018-10-21T00:02:42.597Z,98096.00
2018-10-21T00:05:12.842Z,98087.00
2018-10-21T00:07:42.415Z,98089.00
2018-10-21T00:10:12.298Z,98092.00
2018-10-21T00:12:41.948Z,98089.00
2018-10-21T00:15:21.823Z,98090.00
2018-10-21T00:17:51.455Z,98089.00
2018-10-21T00:20:21.419Z,98079.00
2018-10-21T00:22:51.784Z,98085.00
2018-10-21T00:25:22.433Z,98080.00
2018-10-21T00:27:52.379Z,98082.00
2018-10-21T00:30:22.024Z,98079.00
2018-10-21T00:32:52.596Z,98081.00
2018-10-21T00:35:22.379Z,98076.00
2018-10-21T00:37:52.044Z,98066.00
2018-10-21T00:40:21.703Z,98062.00
2018-10-21T00:42:51.310Z,98059.00
2018-10-21T00:45:20.977Z,98053.00
2018-10-21T00:47:50.538Z,98050.00
2018-10-21T00:50:20.738Z,98043.00
2018-10-21T00:52:50.761Z,98044.00
2018-10-21T00:55:20.783Z,98045.00
2018-10-21T00:57:50.545Z,98045.00
2018-10-21T01:00:21.152Z,98055.00
2018-10-21T01:02:51.455Z,98053.00
2018-10-21T01:05:21.126Z,98042.00
2018-10-21T01:07:50.905Z,98050.00
2018-10-21T01:10:20.670Z,98048.00
2018-10-21T01:12:50.374Z,98042.00
2018-10-21T01:15:20.483Z,98035.00
2018-10-21T01:17:50.322Z,98035.00
2018-10-21T01:20:20.757Z,98033.00
2018-10-21T01:22:51.046Z,98033.00
2018-10-21T01:25:22.816Z,98035.00
2018-10-21T01:27:52.419Z,98038.00
2018-10-21T01:30:22.035Z,98036.00
2018-10-21T01:32:51.707Z,98038.00
2018-10-21T01:35:21.362Z,98038.00
2018-10-21T01:37:51.241Z,98041.00
2018-10-21T01:40:37.513Z,98039.00
2018-10-21T01:43:09.359Z,98038.00
2018-10-21T01:45:44.724Z,98044.00
2018-10-21T01:48:15.238Z,98043.00
2018-10-21T01:50:44.590Z,98040.00
2018-10-21T01:53:15.023Z,98038.00
2018-10-21T01:55:44.365Z,98053.00
2018-10-21T01:58:13.682Z,98057.00
2018-10-21T02:00:43.533Z,98054.00
2018-10-21T02:03:28.926Z,98055.00
2018-10-21T02:05:58.277Z,98055.00
2018-10-21T02:08:27.581Z,98055.00
2018-10-21T02:10:56.888Z,98053.00
2018-10-21T02:13:26.214Z,98052.00
2018-10-21T02:15:55.555Z,98044.00
2018-10-21T02:18:24.877Z,98043.00
2018-10-21T02:20:54.257Z,98038.00
2018-10-21T02:23:23.531Z,98034.00
2018-10-21T02:25:52.864Z,98038.00
2018-10-21T02:28:22.197Z,98038.00
2018-10-21T02:30:51.490Z,98040.00
2018-10-21T02:33:47.861Z,98036.00
2018-10-21T02:36:17.177Z,98044.00
2018-10-21T02:38:46.566Z,98036.00
2018-10-21T02:41:36.998Z,98025.00
2018-10-21T02:44:08.039Z,98015.00
2018-10-21T02:46:37.977Z,98017.00
2018-10-21T02:49:17.726Z,98020.00
2018-10-21T02:51:52.322Z,98018.00
2018-10-21T02:54:23.222Z,98006.00
2018-10-21T02:56:52.846Z,98002.00
2018-10-21T02:59:22.822Z,98009.00
2018-10-21T03:01:52.178Z,98004.00
2018-10-21T03:04:21.834Z,98008.00
2018-10-21T03:06:51.549Z,98010.00
2018-10-21T03:09:21.137Z,98006.00
2018-10-21T03:11:50.437Z,98011.00
2018-10-21T03:14:19.765Z,98015.00
2018-10-21T03:16:49.137Z,98017.00
2018-10-21T03:19:18.459Z,98016.00
2018-10-21T03:21:48.053Z,98014.00
2018-10-21T03:24:17.750Z,98013.00
2018-10-21T03:26:48.088Z,98017.00
2018-10-21T03:29:17.419Z,98022.00
2018-10-21T03:31:46.747Z,98029.00
2018-10-21T03:34:16.051Z,98033.00
2018-10-21T03:36:45.360Z,98029.00
2018-10-21T03:39:37.044Z,98033.00
2018-10-21T03:42:06.395Z,98040.00
2018-10-21T03:44:35.702Z,98037.00
2018-10-21T03:47:05.055Z,98038.00
2018-10-21T03:49:34.353Z,98041.00
2018-10-21T03:52:03.756Z,98040.00
2018-10-21T03:54:33.050Z,98031.00
2018-10-21T03:57:02.350Z,98030.00
2018-10-21T03:59:31.658Z,98032.00
2018-10-21T04:02:01.022Z,98034.00
2018-10-21T04:04:30.326Z,98037.00
2018-10-21T04:06:59.633Z,98028.00
2018-10-21T04:09:28.973Z,98020.00
2018-10-21T04:11:58.278Z,98013.00
2018-10-21T04:14:27.584Z,98004.00
2018-10-21T04:16:56.930Z,98006.00
2018-10-21T04:19:26.230Z,98008.00
2018-10-21T04:21:55.552Z,98011.00
2018-10-21T04:24:24.884Z,98014.00
2018-10-21T04:26:54.194Z,98021.00
2018-10-21T04:29:23.523Z,98021.00
2018-10-21T04:31:52.851Z,98029.00
2018-10-21T04:34:22.163Z,98032.00
2018-10-21T04:36:51.530Z,98029.00
2018-10-21T04:39:38.710Z,98029.00
2018-10-21T04:42:08.030Z,98026.00
2018-10-21T04:44:37.353Z,98027.00
2018-10-21T04:47:07.082Z,98024.00
2018-10-21T04:49:36.263Z,98016.00
2018-10-21T04:52:05.634Z,98019.00
2018-10-21T04:54:34.954Z,98011.00
2018-10-21T04:57:16.634Z,98004.00
2018-10-21T04:59:45.974Z,98012.00
2018-10-21T05:02:15.290Z,98007.00
2018-10-21T05:04:44.586Z,98012.00
2018-10-21T05:07:13.929Z,98015.00
2018-10-21T05:09:43.226Z,98013.00
2018-10-21T05:12:12.557Z,98009.00
2018-10-21T05:14:41.906Z,98015.00
2018-10-21T05:17:11.226Z,98012.00
2018-10-21T05:19:40.541Z,98013.00
2018-10-21T05:22:09.915Z,98011.00
2018-10-21T05:24:39.202Z,98006.00
2018-10-21T05:27:08.981Z,98005.00
2018-10-21T05:29:38.302Z,98009.00
2018-10-21T05:32:07.610Z,98012.00
2018-10-21T05:34:36.927Z,98017.00
2018-10-21T05:37:07.210Z,98016.00
2018-10-21T05:39:36.574Z,98016.00
2018-10-21T05:42:05.957Z,98013.00
2018-10-21T05:44:35.283Z,98010.00
2018-10-21T05:47:04.609Z,98011.00
2018-10-21T05:49:33.936Z,98011.00
2018-10-21T05:52:03.308Z,98014.00
2018-10-21T05:54:34.798Z,98017.00
2018-10-21T05:57:04.130Z,98014.00
2018-10-21T05:59:33.427Z,98019.00
2018-10-21T06:02:02.775Z,98019.00
2018-10-21T06:04:32.237Z,98019.00
2018-10-21T06:07:01.612Z,98018.00
2018-10-21T06:09:30.960Z,98017.00
2018-10-21T06:12:00.307Z,98019.00
2018-10-21T06:14:29.611Z,98012.00
2018-10-21T06:17:05.370Z,98008.00
2018-10-21T06:19:39.461Z,98010.00
2018-10-21T06:22:08.818Z,98012.00
2018-10-21T06:24:38.149Z,98014.00
2018-10-21T06:27:07.538Z,98014.00
2018-10-21T06:29:36.857Z,98013.00
2018-10-21T06:32:06.211Z,98022.00
2018-10-21T06:34:55.016Z,98027.00
2018-10-21T06:37:24.334Z,98030.00
2018-10-21T06:39:53.698Z,98035.00
2018-10-21T06:42:23.033Z,98031.00
2018-10-21T06:44:52.454Z,98032.00
2018-10-21T06:47:21.761Z,98030.00
2018-10-21T06:49:51.090Z,98034.00
2018-10-21T06:52:20.409Z,98031.00
2018-10-21T06:54:49.701Z,98035.00
2018-10-21T06:57:19.270Z,98039.00
2018-10-21T06:59:48.359Z,98034.00
2018-10-21T07:02:17.679Z,98035.00
2018-10-21T07:04:47.073Z,98040.00
2018-10-21T07:07:16.838Z,98045.00
2018-10-21T07:09:46.145Z,98057.00
2018-10-21T07:12:15.473Z,98061.00
2018-10-21T07:15:09.225Z,98062.00
2018-10-21T07:17:38.554Z,98067.00
2018-10-21T07:20:08.194Z,98064.00
2018-10-21T07:22:37.546Z,98061.00
2018-10-21T07:25:08.131Z,98058.00
2018-10-21T07:27:49.563Z,98050.00
2018-10-21T07:30:18.874Z,98050.00
2018-10-21T07:32:48.226Z,98056.00
2018-10-21T07:35:17.561Z,98058.00
2018-10-21T07:37:46.915Z,98050.00
2018-10-21T07:40:23.171Z,98046.00
2018-10-21T07:42:52.541Z,98049.00
2018-10-21T07:45:21.888Z,98047.00
2018-10-21T07:47:51.263Z,98046.00
2018-10-21T07:50:30.782Z,98045.00
2018-10-21T07:53:00.123Z,98048.00
2018-10-21T07:55:29.464Z,98049.00
2018-10-21T07:57:58.861Z,98048.00
2018-10-21T08:00:28.222Z,98058.00
2018-10-21T08:02:57.727Z,98054.00
2018-10-21T08:05:44.104Z,98057.00
2018-10-21T08:08:16.586Z,98055.00
2018-10-21T08:10:52.390Z,98047.00
2018-10-21T08:13:23.191Z,98047.00
2018-10-21T08:15:52.529Z,98050.00
2018-10-21T08:18:21.892Z,98050.00
2018-10-21T08:20:51.755Z,98045.00
2018-10-21T08:23:21.115Z,98050.00
2018-10-21T08:25:51.111Z,98048.00
2018-10-21T08:28:20.467Z,98051.00
2018-10-21T08:30:49.796Z,98050.00
2018-10-21T08:33:24.545Z,98046.00
2018-10-21T08:35:53.908Z,98049.00
2018-10-21T08:38:23.174Z,98041.00
2018-10-21T08:40:52.513Z,98042.00
2018-10-21T08:43:21.826Z,98031.00
2018-10-21T08:45:51.141Z,98031.00
2018-10-21T08:48:20.508Z,98027.00
2018-10-21T08:50:49.950Z,98023.00
2018-10-21T08:53:19.281Z,98020.00
2018-10-21T08:56:19.849Z,98010.00
2018-10-21T08:58:49.161Z,98016.00
2018-10-21T09:01:18.548Z,98015.00
2018-10-21T09:03:47.826Z,98014.00
2018-10-21T09:09:20.798Z,98008.00
2018-10-21T09:12:20.979Z,98006.00
2018-10-21T09:14:50.366Z,98004.00
2018-10-21T09:17:19.665Z,98008.00
2018-10-21T09:19:49.009Z,97999.00
2018-10-21T09:22:18.414Z,97999.00
2018-10-21T09:24:47.703Z,97998.00
2018-10-21T09:27:17.709Z,97996.00
2018-10-21T09:29:47.035Z,97999.00
2018-10-21T09:32:16.363Z,98002.00
2018-10-21T09:34:45.698Z,98000.00
2018-10-21T09:37:15.043Z,98006.00
2018-10-21T09:39:44.976Z,98005.00
2018-10-21T09:42:14.393Z,98001.00
2018-10-21T09:44:43.929Z,98003.00
2018-10-21T09:47:13.281Z,98002.00
2018-10-21T09:49:42.715Z,97999.00
2018-10-21T09:52:12.669Z,97989.00
2018-10-21T09:54:41.910Z,97985.00
2018-10-21T09:57:11.297Z,97982.00
2018-10-21T09:59:40.615Z,97975.00
2018-10-21T10:02:15.173Z,97967.00
2018-10-21T10:04:44.530Z,97970.00
2018-10-21T10:07:13.859Z,97963.00
2018-10-21T10:09:46.330Z,97963.00
2018-10-21T10:12:15.654Z,97951.00
2018-10-21T10:14:44.958Z,97952.00
2018-10-21T10:17:14.282Z,97942.00
2018-10-21T10:19:43.588Z,97939.00
2018-10-21T10:22:12.995Z,97935.00
2018-10-21T10:24:42.274Z,97936.00
2018-10-21T10:27:11.603Z,97938.00
2018-10-21T10:29:40.950Z,97929.00
2018-10-21T10:32:10.286Z,97929.00
2018-10-21T10:34:39.694Z,97928.00
2018-10-21T10:37:09.060Z,97932.00
2018-10-21T10:39:38.357Z,97930.00
2018-10-21T10:42:07.943Z,97925.00
2018-10-21T10:47:38.833Z,97919.00
2018-10-21T10:50:10.573Z,97914.00
2018-10-21T10:52:46.161Z,97906.00
2018-10-21T10:55:15.672Z,97910.00
2018-10-21T10:57:45.356Z,97909.00
2018-10-21T11:00:14.805Z,97903.00
2018-10-21T11:02:44.059Z,97897.00
2018-10-21T11:05:13.370Z,97897.00
2018-10-21T11:07:45.156Z,97889.00
2018-10-21T11:10:15.897Z,97898.00
2018-10-21T11:12:47.104Z,97886.00
2018-10-21T11:15:16.502Z,97878.00
2018-10-21T11:21:05.825Z,97881.00
2018-10-21T11:23:35.158Z,97875.00
2018-10-21T11:26:04.826Z,97874.00
2018-10-21T11:28:39.991Z,97869.00
2018-10-21T11:31:09.367Z,97860.00
2018-10-21T11:33:38.641Z,97857.00
2018-10-21T11:36:08.045Z,97854.00
2018-10-21T11:38:44.326Z,97848.00
2018-10-21T11:41:13.669Z,97850.00
2018-10-21T11:43:43.055Z,97847.00
2018-10-21T11:46:12.492Z,97845.00
2018-10-21T11:48:41.734Z,97848.00
2018-10-21T11:51:17.791Z,97842.00
2018-10-21T11:53:47.133Z,97845.00
2018-10-21T11:56:34.363Z,97837.00
2018-10-21T11:59:03.816Z,97834.00
2018-10-21T12:01:33.193Z,97839.00
2018-10-21T12:04:02.645Z,97839.00
2018-10-21T12:06:33.019Z,97844.00
2018-10-21T12:09:13.517Z,97845.00
2018-10-21T12:11:43.922Z,97841.00
2018-10-21T12:14:26.289Z,97844.00
2018-10-21T12:16:55.882Z,97848.00
2018-10-21T12:19:44.412Z,97837.00
2018-10-21T12:22:13.852Z,97833.00
2018-10-21T12:24:53.312Z,97828.00
2018-10-21T12:27:22.698Z,97832.00
2018-10-21T12:29:52.027Z,97827.00
2018-10-21T12:32:21.437Z,97826.00
2018-10-21T12:34:50.793Z,97825.00
2018-10-21T12:37:20.143Z,97816.00
2018-10-21T12:39:49.463Z,97816.00
2018-10-21T12:42:18.802Z,97809.00
2018-10-21T12:44:48.178Z,97809.00
2018-10-21T12:47:17.525Z,97808.00
2018-10-21T12:49:48.258Z,97802.00
2018-10-21T12:52:17.638Z,97804.00
2018-10-21T12:54:51.258Z,97799.00
2018-10-21T12:57:23.999Z,97797.00
2018-10-21T12:59:53.334Z,97800.00
2018-10-21T13:02:32.997Z,97795.00
2018-10-21T13:05:02.330Z,97794.00
2018-10-21T13:07:31.700Z,97787.00
2018-10-21T13:10:01.085Z,97792.00
2018-10-21T13:12:30.416Z,97798.00
2018-10-21T13:15:19.728Z,97794.00
2018-10-21T13:17:49.067Z,97800.00
2018-10-21T13:20:18.386Z,97792.00
2018-10-21T13:25:53.754Z,97793.00
2018-10-21T13:28:23.226Z,97792.00
2018-10-21T13:30:52.411Z,97788.00
2018-10-21T13:33:21.734Z,97780.00
2018-10-21T13:35:51.069Z,97782.00
2018-10-21T13:38:20.374Z,97778.00
2018-10-21T13:40:49.733Z,97774.00
2018-10-21T13:43:19.311Z,97776.00
2018-10-21T13:45:48.655Z,97774.00
2018-10-21T13:48:18.588Z,97775.00
2018-10-21T13:50:47.934Z,97773.00
2018-10-21T13:53:17.330Z,97771.00
2018-10-21T13:55:52.358Z,97773.00
2018-10-21T13:58:21.789Z,97773.00
2018-10-21T14:00:51.125Z,97777.00
2018-10-21T14:03:20.471Z,97774.00
2018-10-21T14:05:49.774Z,97771.00
2018-10-21T14:08:19.129Z,97767.00
2018-10-21T14:11:01.085Z,97762.00
2018-10-21T14:13:30.413Z,97756.00
2018-10-21T14:15:59.855Z,97759.00
2018-10-21T14:18:41.512Z,97759.00
2018-10-21T14:21:10.841Z,97761.00
2018-10-21T14:23:40.159Z,97756.00
2018-10-21T14:26:16.698Z,97756.00
2018-10-21T14:28:46.626Z,97752.00
2018-10-21T14:31:15.962Z,97756.00
2018-10-21T14:33:45.309Z,97757.00
2018-10-21T14:36:14.663Z,97758.00
2018-10-21T14:38:44.049Z,97755.00
2018-10-21T14:41:13.429Z,97756.00
2018-10-21T14:43:43.073Z,97761.00
2018-10-21T14:46:24.925Z,97755.00
2018-10-21T14:48:54.259Z,97753.00
2018-10-21T14:51:24.622Z,97762.00
2018-10-21T14:53:53.942Z,97756.00
2018-10-21T14:56:42.022Z,97753.00
2018-10-21T14:59:11.347Z,97757.00
2018-10-21T15:01:40.683Z,97753.00
2018-10-21T15:04:10.024Z,97751.00
2018-10-21T15:06:39.357Z,97752.00
2018-10-21T15:09:12.399Z,97762.00
2018-10-21T15:11:43.217Z,97748.00
2018-10-21T15:14:13.122Z,97757.00
2018-10-21T15:16:42.401Z,97754.00
2018-10-21T15:19:11.805Z,97745.00
2018-10-21T15:21:41.275Z,97753.00
2018-10-21T15:24:39.434Z,97744.00
2018-10-21T15:27:31.134Z,97747.00
2018-10-21T15:30:19.811Z,97741.00
2018-10-21T15:32:49.117Z,97747.00
2018-10-21T15:35:18.482Z,97746.00
2018-10-21T15:37:47.814Z,97747.00
2018-10-21T15:40:17.196Z,97751.00
2018-10-21T15:42:46.532Z,97750.00
2018-10-21T15:45:15.830Z,97749.00
2018-10-21T15:47:45.202Z,97746.00
2018-10-21T15:50:14.726Z,97754.00
2018-10-21T15:52:58.278Z,97757.00
2018-10-21T15:55:27.689Z,97749.00
2018-10-21T15:57:57.046Z,97751.00
2018-10-21T16:00:40.534Z,97754.00
2018-10-21T16:03:09.830Z,97758.00
2018-10-21T16:06:03.469Z,97752.00
2018-10-21T16:08:36.842Z,97745.00
2018-10-21T16:11:06.973Z,97746.00
2018-10-21T16:13:39.961Z,97749.00
2018-10-21T16:16:17.092Z,97752.00
2018-10-21T16:18:58.854Z,97752.00
2018-10-21T16:21:57.145Z,97755.00
2018-10-21T16:24:26.445Z,97755.00
2018-10-21T16:27:02.554Z,97752.00
2018-10-21T16:29:36.890Z,97751.00
2018-10-21T16:32:07.307Z,97752.00
2018-10-21T16:37:37.623Z,97759.00
2018-10-21T16:43:11.762Z,97772.00
2018-10-21T16:45:48.328Z,97771.00
2018-10-21T16:48:23.279Z,97775.00
2018-10-21T16:53:58.136Z,97783.00
2018-10-21T16:59:32.477Z,97782.00
2018-10-21T17:02:01.799Z,97791.00
2018-10-21T17:04:41.521Z,97786.00
2018-10-21T17:07:10.926Z,97794.00
2018-10-21T17:09:41.505Z,97792.00
2018-10-21T17:12:10.601Z,97790.00
2018-10-21T17:14:44.270Z,97797.00
2018-10-21T17:17:14.058Z,97800.00
2018-10-21T17:19:55.677Z,97796.00
2018-10-21T17:22:25.017Z,97792.00
2018-10-21T17:25:12.139Z,97804.00
2018-10-21T17:27:41.577Z,97801.00
2018-10-21T17:30:14.586Z,97796.00
2018-10-21T17:32:44.791Z,97800.00
2018-10-21T17:35:14.158Z,97804.00
2018-10-21T17:37:43.559Z,97807.00
2018-10-21T17:43:37.990Z,97800.00
2018-10-21T17:46:07.527Z,97798.00
2018-10-21T17:48:36.857Z,97792.00
2018-10-21T17:51:06.584Z,97795.00
2018-10-21T17:53:41.681Z,97794.00
2018-10-21T17:59:13.362Z,97793.00
2018-10-21T18:02:04.152Z,97791.00
2018-10-21T18:07:33.352Z,97796.00
2018-10-21T18:10:02.891Z,97792.00
2018-10-21T18:12:38.478Z,97798.00
2018-10-21T18:15:09.243Z,97795.00
2018-10-21T18:18:08.649Z,97793.00
2018-10-21T18:20:38.101Z,97789.00
2018-10-21T18:23:15.409Z,97795.00
2018-10-21T18:25:49.968Z,97795.00
2018-10-21T18:28:20.384Z,97799.00
2018-10-21T18:30:50.324Z,97792.00
2018-10-21T18:33:38.218Z,97795.00
2018-10-21T18:39:11.130Z,97789.00
2018-10-21T18:41:40.498Z,97793.00
2018-10-21T18:44:10.405Z,97789.00
2018-10-21T18:46:45.390Z,97788.00
2018-10-21T18:49:27.643Z,97793.00
2018-10-21T18:51:57.945Z,97793.00
2018-10-21T18:54:27.314Z,97792.00
2018-10-21T18:57:04.985Z,97797.00
2018-10-21T18:59:59.102Z,97796.00
2018-10-21T19:02:28.449Z,97799.00
2018-10-21T19:05:23.407Z,97792.00
2018-10-21T19:07:53.206Z,97789.00
2018-10-21T19:10:22.703Z,97797.00
2018-10-21T19:13:00.056Z,97798.00
2018-10-21T19:15:24.937Z,97791.00
2018-10-21T19:18:00.270Z,97793.00
2018-10-21T19:20:29.571Z,97798.00
2018-10-21T19:22:58.992Z,97796.00
2018-10-21T19:25:37.954Z,97799.00
2018-10-21T19:28:07.309Z,97800.00
2018-10-21T19:30:36.621Z,97801.00
2018-10-21T19:33:06.557Z,97801.00
2018-10-21T19:35:35.906Z,97804.00
2018-10-21T19:38:05.263Z,97801.00
2018-10-21T19:40:34.597Z,97807.00
2018-10-21T19:43:04.026Z,97802.00
2018-10-21T19:45:33.265Z,97804.00
2018-10-21T19:48:02.585Z,97814.00
2018-10-21T19:50:31.976Z,97805.00
2018-10-21T19:56:05.259Z,97806.00
2018-10-21T20:04:56.293Z,97803.00
2018-10-21T20:07:26.173Z,97809.00
2018-10-21T20:09:56.686Z,97802.00
2018-10-21T20:12:29.383Z,97812.00
2018-10-21T20:15:12.049Z,97815.00
2018-10-21T20:17:44.233Z,97812.00
2018-10-21T20:20:20.951Z,97813.00
2018-10-21T20:22:50.302Z,97813.00
2018-10-21T20:25:21.237Z,97808.00
2018-10-21T20:27:50.714Z,97810.00
2018-10-21T20:30:20.095Z,97810.00
2018-10-21T20:32:50.253Z,97811.00
2018-10-21T20:35:20.414Z,97812.00
2018-10-21T20:37:51.005Z,97820.00
2018-10-21T20:40:22.727Z,97819.00
2018-10-21T20:42:55.673Z,97814.00
2018-10-21T20:45:25.318Z,97822.00
2018-10-21T20:48:00.655Z,97824.00
2018-10-21T20:50:30.256Z,97823.00
2018-10-21T20:52:59.583Z,97824.00
2018-10-21T20:55:29.872Z,97823.00
2018-10-21T20:57:59.389Z,97823.00
2018-10-21T21:00:28.823Z,97822.00
2018-10-21T21:03:23.145Z,97815.00
2018-10-21T21:05:53.006Z,97813.00
2018-10-21T21:08:22.389Z,97813.00
2018-10-21T21:10:57.061Z,97811.00
2018-10-21T21:13:28.705Z,97812.00
2018-10-21T21:16:01.441Z,97810.00
2018-10-21T21:18:30.926Z,97813.00
2018-10-21T21:21:00.309Z,97810.00
2018-10-21T21:23:39.861Z,97814.00
2018-10-21T21:26:09.151Z,97815.00
2018-10-21T21:28:38.678Z,97811.00
2018-10-21T21:31:08.513Z,97805.00
2018-10-21T21:33:38.402Z,97806.00
2018-10-21T21:36:11.787Z,97806.00
2018-10-21T21:38:42.233Z,97815.00
2018-10-21T21:41:11.638Z,97801.00
2018-10-21T21:44:11.794Z,97800.00
2018-10-21T21:46:51.309Z,97803.00
2018-10-21T21:49:21.998Z,97800.00
2018-10-21T21:51:51.503Z,97795.00
2018-10-21T21:54:23.697Z,97797.00
2018-10-21T21:56:53.425Z,97795.00
2018-10-21T21:59:24.730Z,97789.00
2018-10-21T22:01:54.153Z,97789.00
2018-10-21T22:04:23.625Z,97794.00
2018-10-21T22:07:09.929Z,97789.00
2018-10-21T22:09:39.999Z,97786.00
2018-10-21T22:12:09.941Z,97789.00
2018-10-21T22:14:39.270Z,97779.00
2018-10-21T22:17:08.577Z,97780.00
2018-10-21T22:19:37.887Z,97774.00
2018-10-21T22:22:23.613Z,97775.00
2018-10-21T22:24:52.933Z,97777.00
2018-10-21T22:27:26.054Z,97780.00
2018-10-21T22:29:55.802Z,97775.00
2018-10-21T22:32:27.489Z,97775.00
2018-10-21T22:34:58.961Z,97777.00
2018-10-21T22:37:36.468Z,97781.00
2018-10-21T22:40:08.968Z,97778.00
2018-10-21T22:42:43.793Z,97773.00
2018-10-21T22:45:13.124Z,97772.00
2018-10-21T22:47:45.194Z,97775.00
2018-10-21T22:50:14.782Z,97779.00
2018-10-21T22:52:45.430Z,97771.00
2018-10-21T22:55:14.746Z,97777.00
2018-10-21T22:57:48.205Z,97778.00
2018-10-21T23:00:17.660Z,97779.00
2018-10-21T23:02:51.126Z,97777.00
2018-10-21T23:05:25.471Z,97781.00
2018-10-21T23:07:55.027Z,97786.00
2018-10-21T23:10:28.029Z,97791.00
2018-10-21T23:12:57.497Z,97793.00
2018-10-21T23:15:26.830Z,97794.00
2018-10-21T23:17:56.414Z,97799.00
2018-10-21T23:20:25.724Z,97797.00
2018-10-21T23:22:56.474Z,97795.00
2018-10-21T23:25:40.545Z,97800.00
2018-10-21T23:28:09.925Z,97805.00
2018-10-21T23:30:39.258Z,97809.00
2018-10-21T23:33:21.958Z,97800.00
2018-10-21T23:35:51.581Z,97803.00
2018-10-21T23:38:21.173Z,97805.00
2018-10-21T23:40:50.485Z,97806.00
2018-10-21T23:43:19.838Z,97800.00
2018-10-21T23:45:49.147Z,97799.00
2018-10-21T23:48:18.673Z,97795.00
2018-10-21T23:50:51.404Z,97789.00
2018-10-21T23:53:25.718Z,97790.00
2018-10-21T23:55:59.233Z,97796.00
2018-10-21T23:58:29.254Z,97799.00
